Time;durP1;ratioP1;P1;durP2;ratioP2;P2;SDS_P1;SDS_P2;PMS_P1;PMS_P2;Temp;Humidity;BMP_temperature;BMP_pressure;BME280_temperature;BME280_humidity;BME280_pressure;Samples;Min_cycle;Max_cycle;Signal;HPM_P1;HPM_P2
2023/07/26 00:00:04;;;;;;;3.20;1.30;;;;;;;11.27;100.00;100254.75;4959849;28;20042;-84
2023/07/26 00:02:31;;;;;;;2.10;1.23;;;;;;;11.23;100.00;100256.56;4955906;29;20043;-84
2023/07/26 00:04:57;;;;;;;1.48;1.33;;;;;;;11.21;100.00;100253.09;4959852;28;20043;-83
2023/07/26 00:07:24;;;;;;;1.50;1.05;;;;;;;11.20;100.00;100260.09;4958263;28;20042;-84
2023/07/26 00:09:50;;;;;;;2.20;1.73;;;;;;;11.20;100.00;100257.47;4954425;28;20039;-85
2023/07/26 00:12:17;;;;;;;3.05;1.73;;;;;;;11.20;100.00;100262.72;4941016;28;20047;-85
2023/07/26 00:14:44;;;;;;;1.65;1.30;;;;;;;11.17;100.00;100259.28;4932981;28;20041;-83
2023/07/26 00:17:11;;;;;;;3.55;2.67;;;;;;;11.16;100.00;100260.16;4942348;28;20126;-85
2023/07/26 00:19:37;;;;;;;9.95;1.65;;;;;;;11.13;100.00;100258.47;4947577;29;20044;-86
2023/07/26 00:22:04;;;;;;;3.17;1.67;;;;;;;11.09;100.00;100260.31;4933094;29;20046;-84
2023/07/26 00:24:31;;;;;;;2.78;1.55;;;;;;;11.05;100.00;100260.38;4930151;29;20479;-90
2023/07/26 00:26:57;;;;;;;2.13;1.40;;;;;;;11.06;100.00;100262.09;4930647;29;20051;-87
2023/07/26 00:29:24;;;;;;;6.43;1.67;;;;;;;11.04;100.00;100269.09;4926423;29;20043;-84
2023/07/26 00:31:50;;;;;;;1.90;1.40;;;;;;;11.03;100.00;100265.63;4937041;29;20048;-84
2023/07/26 00:34:17;;;;;;;1.52;1.40;;;;;;;11.03;100.00;100263.03;4901908;29;20044;-83
2023/07/26 00:36:44;;;;;;;1.40;1.30;;;;;;;11.05;100.00;100270.84;4929689;29;20210;-84
2023/07/26 00:39:10;;;;;;;2.55;1.33;;;;;;;11.01;100.00;100267.41;4935677;29;20098;-83
2023/07/26 00:41:37;;;;;;;1.63;1.15;;;;;;;11.04;100.00;100271.72;4929281;29;20039;-85
2023/07/26 00:44:04;;;;;;;4.05;1.20;;;;;;;11.04;100.00;100272.59;4929094;29;20486;-84
2023/07/26 00:46:31;;;;;;;1.42;1.33;;;;;;;11.02;100.00;100276.16;4928709;29;20040;-83
2023/07/26 00:48:58;;;;;;;1.85;1.20;;;;;;;10.95;100.00;100274.50;4935576;29;20143;-83
2023/07/26 00:51:26;;;;;;;1.15;1.15;;;;;;;10.94;100.00;100281.50;4919771;29;20131;-84
2023/07/26 00:53:53;;;;;;;3.45;1.50;;;;;;;10.97;100.00;100275.34;4920280;29;20522;-84
2023/07/26 00:56:20;;;;;;;2.40;1.33;;;;;;;10.98;100.00;100277.94;4937806;29;20051;-84
2023/07/26 00:58:47;;;;;;;4.60;1.48;;;;;;;10.93;100.00;100278.00;4929675;29;20103;-85
2023/07/26 01:01:14;;;;;;;1.88;1.25;;;;;;;10.90;100.00;100280.69;4928384;29;20053;-84
2023/07/26 01:03:40;;;;;;;3.38;1.48;;;;;;;10.89;100.00;100286.81;4942836;29;20079;-85
2023/07/26 01:06:41;;;;;;;2.28;1.45;;;;;;;10.82;100.00;100277.34;4923718;29;20047;-89
2023/07/26 01:09:25;;;;;;;1.38;1.27;;;;;;;10.78;100.00;100280.00;4932183;29;20102;-85
2023/07/26 01:12:06;;;;;;;3.33;1.40;;;;;;;10.74;100.00;100282.69;4917239;29;20494;-83
2023/07/26 01:14:54;;;;;;;2.60;1.13;;;;;;;10.72;100.00;100283.59;4928439;29;20035;-87
2023/07/26 01:17:20;;;;;;;1.45;1.35;;;;;;;10.69;100.00;100284.53;4936847;29;20039;-84
2023/07/26 01:19:47;;;;;;;3.33;1.25;;;;;;;10.69;100.00;100297.59;4925140;29;20043;-85
2023/07/26 01:22:14;;;;;;;1.80;1.70;;;;;;;10.71;100.00;100295.81;4956891;29;20035;-84
2023/07/26 01:24:41;;;;;;;1.27;1.13;;;;;;;10.69;100.00;100288.88;4953832;28;20058;-86
2023/07/26 01:27:07;;;;;;;3.30;1.55;;;;;;;10.65;100.00;100289.81;4970830;28;20039;-89
2023/07/26 01:29:34;;;;;;;1.95;1.38;;;;;;;10.66;100.00;100291.53;4952774;29;20039;-83
2023/07/26 01:32:01;;;;;;;3.20;1.42;;;;;;;10.69;100.00;100288.88;4939735;29;20043;-84
2023/07/26 01:34:28;;;;;;;4.57;1.20;;;;;;;10.68;100.00;100290.63;4954741;28;20130;-84
2023/07/26 01:36:56;;;;;;;3.40;1.35;;;;;;;10.69;100.00;100283.63;4935355;29;20043;-92
2023/07/26 01:39:24;;;;;;;2.92;1.23;;;;;;;10.69;100.00;100287.13;4951206;29;20118;-86
2023/07/26 01:41:51;;;;;;;1.33;1.23;;;;;;;10.66;100.00;100288.94;4937156;29;20067;-84
2023/07/26 01:44:18;;;;;;;4.22;1.02;;;;;;;10.59;100.00;100281.16;4957012;28;20074;-83
2023/07/26 01:46:45;;;;;;;1.00;0.90;;;;;;;10.61;100.00;100280.28;4953313;29;20415;-82
2023/07/26 01:49:12;;;;;;;1.92;1.13;;;;;;;10.58;100.00;100281.19;4948202;29;20067;-85
2023/07/26 01:51:39;;;;;;;2.72;1.27;;;;;;;10.56;100.00;100288.22;4930921;29;20086;-84
2023/07/26 01:54:07;;;;;;;3.05;1.25;;;;;;;10.56;100.00;100278.59;4950022;29;20047;-85
2023/07/26 01:56:33;;;;;;;3.10;1.25;;;;;;;10.55;100.00;100284.72;4933929;29;20079;-83
2023/07/26 01:59:00;;;;;;;2.50;1.40;;;;;;;10.56;100.00;100289.06;4954245;28;20049;-83
2023/07/26 02:01:26;;;;;;;1.58;1.15;;;;;;;10.56;100.00;100280.38;4955086;28;20282;-85
2023/07/26 02:03:53;;;;;;;1.35;1.25;;;;;;;10.54;100.00;100275.13;4940844;29;20043;-86
2023/07/26 02:06:19;;;;;;;6.45;1.27;;;;;;;10.55;100.00;100281.25;4981823;28;20486;-84
2023/07/26 02:08:46;;;;;;;2.67;1.50;;;;;;;10.56;100.00;100273.38;4939773;29;20130;-83
2023/07/26 02:11:13;;;;;;;1.00;0.95;;;;;;;10.59;100.00;100277.69;4947995;29;20705;-84
2023/07/26 02:13:40;;;;;;;1.75;1.33;;;;;;;10.61;100.00;100275.91;4956568;28;20110;-84
2023/07/26 02:16:06;;;;;;;1.88;1.17;;;;;;;10.65;100.00;100276.72;4948234;29;20036;-85
2023/07/26 02:18:33;;;;;;;3.55;1.25;;;;;;;10.64;100.00;100275.88;4954314;28;20122;-85
2023/07/26 02:20:59;;;;;;;1.42;1.33;;;;;;;10.69;100.00;100275.78;4939526;29;20526;-84
2023/07/26 02:23:26;;;;;;;2.92;1.20;;;;;;;10.65;100.00;100274.09;4959127;28;20047;-85
2023/07/26 02:25:52;;;;;;;1.58;1.00;;;;;;;10.65;100.00;100268.88;4952055;28;20051;-90
2023/07/26 02:28:19;;;;;;;1.80;1.00;;;;;;;10.69;100.00;100284.53;4930264;29;20090;-86
2023/07/26 02:30:46;;;;;;;1.42;1.23;;;;;;;10.70;100.00;100282.75;4958037;28;20040;-84
2023/07/26 02:33:12;;;;;;;1.98;1.00;;;;;;;10.68;100.00;100284.53;4949388;29;20039;-85
2023/07/26 02:35:39;;;;;;;3.30;1.17;;;;;;;10.69;100.00;100281.91;4951874;28;20035;-89
2023/07/26 02:38:05;;;;;;;2.88;1.10;;;;;;;10.69;100.00;100279.28;4946957;29;20035;-85
2023/07/26 02:40:32;;;;;;;1.70;1.13;;;;;;;10.67;100.00;100280.19;4932763;29;20080;-84
2023/07/26 02:42:58;;;;;;;3.17;1.40;;;;;;;10.71;100.00;100287.09;4952890;28;20035;-86
2023/07/26 02:45:25;;;;;;;2.13;1.42;;;;;;;10.72;100.00;100291.47;4955124;29;20035;-85
2023/07/26 02:47:51;;;;;;;4.22;2.00;;;;;;;10.74;100.00;100284.44;4957463;28;20046;-84
2023/07/26 02:50:18;;;;;;;1.38;1.27;;;;;;;10.75;100.00;100289.66;4952006;28;20121;-84
2023/07/26 02:52:45;;;;;;;2.22;1.30;;;;;;;10.74;100.00;100289.66;4963873;28;20038;-87
2023/07/26 02:55:11;;;;;;;1.30;1.20;;;;;;;10.71;100.00;100293.19;4953561;28;20062;-89
2023/07/26 02:57:38;;;;;;;1.45;1.25;;;;;;;10.72;100.00;100286.22;4955420;29;20054;-84
2023/07/26 03:00:07;;;;;;;2.28;1.45;;;;;;;10.74;100.00;100287.03;4950394;29;20074;-85
2023/07/26 03:02:34;;;;;;;2.55;1.15;;;;;;;10.75;100.00;100294.00;4949525;28;20047;-85
2023/07/26 03:05:00;;;;;;;4.20;1.88;;;;;;;10.75;100.00;100305.38;4970854;28;20038;-87
2023/07/26 03:07:27;;;;;;;2.08;1.98;;;;;;;10.77;100.00;100305.34;4953291;29;20067;-85
2023/07/26 03:09:54;;;;;;;1.58;1.42;;;;;;;10.78;100.00;100304.47;4953246;28;20049;-86
2023/07/26 03:12:20;;;;;;;1.67;1.17;;;;;;;10.81;100.00;100311.38;4942961;28;20062;-83
2023/07/26 03:14:47;;;;;;;4.47;1.50;;;;;;;10.82;100.00;100306.13;4946769;28;20119;-86
2023/07/26 03:17:13;;;;;;;2.15;1.45;;;;;;;10.85;100.00;100305.22;4947271;29;20043;-85
2023/07/26 03:19:40;;;;;;;1.63;1.17;;;;;;;10.88;100.00;100308.63;4952806;28;20115;-87
2023/07/26 03:22:06;;;;;;;1.63;1.52;;;;;;;10.87;100.00;100306.06;4917799;29;20044;-85
2023/07/26 03:24:33;;;;;;;2.67;1.52;;;;;;;10.85;100.00;100308.69;4931551;29;20046;-84
2023/07/26 03:26:59;;;;;;;4.25;1.50;;;;;;;10.88;100.00;100308.63;4926228;29;20466;-84
2023/07/26 03:29:26;;;;;;;3.15;1.58;;;;;;;10.91;100.00;100307.72;4950487;28;20048;-87
2023/07/26 03:31:53;;;;;;;4.35;1.55;;;;;;;10.96;100.00;100312.91;4924829;29;20153;-88
2023/07/26 03:34:19;;;;;;;2.60;1.55;;;;;;;10.96;100.00;100312.91;4931333;29;20043;-84
2023/07/26 03:36:46;;;;;;;2.38;1.60;;;;;;;10.99;100.00;100313.72;4945201;29;20067;-85
2023/07/26 03:39:12;;;;;;;1.83;1.25;;;;;;;10.99;100.00;100315.47;4939657;29;20043;-83
2023/07/26 03:41:39;;;;;;;3.63;1.75;;;;;;;10.99;100.00;100312.84;4941006;29;20765;-85
2023/07/26 03:44:05;;;;;;;3.53;2.00;;;;;;;11.04;100.00;100311.00;4938035;29;20047;-84
2023/07/26 03:46:32;;;;;;;5.15;2.70;;;;;;;11.04;100.00;100319.75;4944209;29;20086;-86
2023/07/26 03:48:58;;;;;;;5.13;1.48;;;;;;;11.09;100.00;100312.69;4922292;29;20491;-86
2023/07/26 03:51:25;;;;;;;4.38;1.60;;;;;;;11.13;100.00;100317.88;4937506;29;20071;-85
2023/07/26 03:53:52;;;;;;;1.75;1.30;;;;;;;11.16;100.00;100320.41;4932005;29;20478;-83
2023/07/26 03:56:18;;;;;;;4.47;2.20;;;;;;;11.17;100.00;100309.06;4959926;28;20110;-83
2023/07/26 03:58:45;;;;;;;6.28;2.05;;;;;;;11.20;100.00;100319.50;4939981;29;20047;-85
2023/07/26 04:01:11;;;;;;;2.42;1.60;;;;;;;11.22;100.00;100315.97;4920155;29;20086;-85
2023/07/26 04:03:38;;;;;;;3.65;1.80;;;;;;;11.25;100.00;100320.25;4947092;28;20047;-85
2023/07/26 04:06:04;;;;;;;1.92;1.50;;;;;;;11.29;100.00;100319.34;4923739;29;20063;-88
2023/07/26 04:08:31;;;;;;;1.98;1.83;;;;;;;11.32;100.00;100326.28;4925209;29;20047;-85
2023/07/26 04:11:03;;;;;;;1.63;1.52;;;;;;;11.38;100.00;100313.94;4932993;29;20043;-86
2023/07/26 04:13:30;;;;;;;3.25;1.80;;;;;;;11.42;100.00;100322.63;4930047;29;20040;-83
2023/07/26 04:15:56;;;;;;;1.85;1.58;;;;;;;11.41;100.00;100326.97;4935389;29;20036;-84
2023/07/26 04:18:23;;;;;;;3.53;1.55;;;;;;;11.44;100.00;100323.44;4935338;29;20475;-84
2023/07/26 04:20:50;;;;;;;1.83;1.73;;;;;;;11.46;100.00;100326.91;4944275;29;20370;-84
2023/07/26 04:23:16;;;;;;;3.10;1.60;;;;;;;11.48;100.00;100321.63;4966792;28;20464;-85
2023/07/26 04:25:43;;;;;;;4.20;2.13;;;;;;;11.50;100.00;100325.97;4931390;29;20103;-87
2023/07/26 04:28:09;;;;;;;5.97;2.08;;;;;;;11.55;100.00;100326.75;4954746;29;20387;-84
2023/07/26 04:30:39;;;;;;;4.05;1.48;;;;;;;11.57;100.00;100337.19;4954847;29;20046;-84
2023/07/26 04:33:06;;;;;;;4.68;1.42;;;;;;;11.58;100.00;100334.53;4951411;29;20066;-86
2023/07/26 04:35:32;;;;;;;3.00;1.65;;;;;;;11.59;100.00;100338.91;4951829;29;20040;-86
2023/07/26 04:37:59;;;;;;;2.40;1.60;;;;;;;11.64;100.00;100335.31;4946757;29;20046;-84
2023/07/26 04:40:27;;;;;;;1.90;1.70;;;;;;;11.64;100.00;100343.19;4930314;29;20070;-88
2023/07/26 04:42:53;;;;;;;3.28;1.55;;;;;;;11.65;100.00;100342.28;4933124;29;20044;-87
2023/07/26 04:45:20;;;;;;;3.95;2.17;;;;;;;11.64;100.00;100332.69;4941211;29;20047;-84
2023/07/26 04:47:46;;;;;;;1.58;1.45;;;;;;;11.64;100.00;100341.44;4962541;28;20055;-83
2023/07/26 04:50:13;;;;;;;1.73;1.35;;;;;;;11.67;100.00;100343.16;4934427;29;20039;-84
2023/07/26 04:52:39;;;;;;;3.28;1.33;;;;;;;11.67;100.00;100338.75;4953551;28;20118;-82
2023/07/26 04:55:07;;;;;;;2.83;1.40;;;;;;;11.71;100.00;100350.91;4938334;29;20121;-85
2023/07/26 04:57:38;;;;;;;4.90;1.92;;;;;;;11.73;100.00;100349.13;4935738;29;20054;-85
2023/07/26 05:00:07;;;;;;;3.17;1.70;;;;;;;11.77;100.00;100355.16;4948478;29;20122;-86
2023/07/26 05:02:33;;;;;;;2.13;1.77;;;;;;;11.82;100.00;100350.69;4952311;29;20142;-84
2023/07/26 05:05:00;;;;;;;5.18;2.05;;;;;;;11.88;100.00;100353.22;4954730;28;20039;-84
2023/07/26 05:07:27;;;;;;;4.70;1.70;;;;;;;11.95;100.00;100353.09;4955176;28;20043;-87
2023/07/26 05:09:53;;;;;;;5.47;1.58;;;;;;;12.01;100.00;100356.50;4958489;28;20078;-82
2023/07/26 05:12:21;;;;;;;5.35;1.77;;;;;;;12.08;100.00;100365.09;4949777;29;20066;-84
2023/07/26 05:14:48;;;;;;;3.25;1.70;;;;;;;12.12;100.00;100374.66;4969198;28;20106;-85
2023/07/26 05:17:14;;;;;;;1.73;1.55;;;;;;;12.16;100.00;100364.97;4930762;29;20047;-83
2023/07/26 05:19:41;;;;;;;2.45;1.55;;;;;;;12.21;100.00;100366.59;4953699;29;20486;-83
2023/07/26 05:22:08;;;;;;;4.35;1.45;;;;;;;12.23;100.00;100369.19;4950823;28;20035;-86
2023/07/26 05:24:34;;;;;;;3.60;2.05;;;;;;;12.25;100.00;100370.00;4953662;28;20039;-84
2023/07/26 05:27:01;;;;;;;2.88;1.60;;;;;;;12.25;100.00;100370.00;4968795;28;20122;-83
2023/07/26 05:29:29;;;;;;;4.40;1.58;;;;;;;12.31;100.00;100374.28;4958994;28;20042;-85
2023/07/26 05:31:55;;;;;;;3.53;1.65;;;;;;;12.38;100.00;100368.88;4957661;28;20046;-83
2023/07/26 05:34:22;;;;;;;1.70;1.60;;;;;;;12.47;100.00;100373.06;4941488;28;20070;-83
2023/07/26 05:36:48;;;;;;;2.25;1.42;;;;;;;12.54;100.00;100374.66;4960974;28;20063;-82
2023/07/26 05:39:15;;;;;;;4.75;1.77;;;;;;;12.59;100.00;100369.28;4959639;28;20086;-87
2023/07/26 05:41:41;;;;;;;3.50;1.88;;;;;;;12.67;100.00;100380.53;4969608;28;20042;-83
2023/07/26 05:44:09;;;;;;;3.13;1.77;;;;;;;12.71;99.83;100376.03;4957352;29;20043;-84
2023/07/26 05:46:35;;;;;;;5.20;1.75;;;;;;;12.79;99.64;100383.75;4941924;29;20115;-85
2023/07/26 05:49:02;;;;;;;3.35;1.25;;;;;;;12.89;99.05;100385.28;4955558;28;20054;-84
2023/07/26 05:51:28;;;;;;;2.03;1.23;;;;;;;13.01;98.64;100389.38;4974909;28;20035;-85
2023/07/26 05:53:55;;;;;;;2.25;1.13;;;;;;;13.07;98.24;100386.63;4954693;29;20040;-83
2023/07/26 05:56:22;;;;;;;2.95;2.00;;;;;;;13.19;97.29;100381.09;4934018;28;20080;-85
2023/07/26 05:58:48;;;;;;;4.40;1.30;;;;;;;13.22;97.25;100385.41;4956841;28;20031;-83
2023/07/26 06:01:15;;;;;;;3.63;2.17;;;;;;;13.29;96.81;100384.34;4959442;28;20035;-84
2023/07/26 06:03:45;;;;;;;4.35;1.48;;;;;;;13.37;96.64;100392.06;4960670;28;20093;-84
2023/07/26 06:06:12;;;;;;;3.45;1.70;;;;;;;13.48;96.01;100386.53;4948089;28;20047;-88
2023/07/26 06:08:40;;;;;;;6.13;1.80;;;;;;;13.53;95.68;100389.91;4935091;28;20039;-86
2023/07/26 06:11:06;;;;;;;1.60;1.50;;;;;;;13.65;95.59;100391.34;4955534;28;20051;-86
2023/07/26 06:13:33;;;;;;;3.13;1.60;;;;;;;13.76;94.94;100386.69;4934839;28;20047;-83
2023/07/26 06:16:00;;;;;;;2.13;1.55;;;;;;;13.81;94.19;100392.69;4952369;28;20065;-83
2023/07/26 06:18:26;;;;;;;1.80;1.67;;;;;;;13.91;94.23;100385.44;4950829;28;20126;-83
2023/07/26 06:20:53;;;;;;;2.47;1.38;;;;;;;14.10;92.24;100387.53;4953999;28;20051;-85
2023/07/26 06:23:19;;;;;;;3.38;1.70;;;;;;;14.11;91.53;100391.91;4955379;28;20047;-88
2023/07/26 06:25:47;;;;;;;7.90;1.58;;;;;;;14.16;91.88;100395.28;4950020;28;20043;-84
2023/07/26 06:28:14;;;;;;;4.35;1.52;;;;;;;14.33;90.81;100387.75;4965495;28;20112;-86
2023/07/26 06:30:41;;;;;;;1.45;1.38;;;;;;;14.46;91.43;100400.59;4954008;28;20043;-83
2023/07/26 06:33:08;;;;;;;2.20;1.20;;;;;;;14.68;89.81;100401.69;4965753;28;20038;-88
2023/07/26 06:35:34;;;;;;;4.22;1.90;;;;;;;14.76;88.96;100392.69;4953341;28;20132;-86
2023/07/26 06:38:01;;;;;;;1.67;1.05;;;;;;;14.75;89.56;100398.88;4964822;28;20038;-85
2023/07/26 06:40:28;;;;;;;3.08;1.40;;;;;;;14.96;88.44;100390.28;4953561;28;20769;-85
2023/07/26 06:42:54;;;;;;;3.75;1.77;;;;;;;15.05;87.78;100397.91;4945227;28;20046;-86
2023/07/26 06:45:21;;;;;;;4.90;1.30;;;;;;;15.17;87.47;100401.91;4939333;28;20047;-87
2023/07/26 06:47:47;;;;;;;3.25;1.10;;;;;;;15.19;87.33;100408.03;4947672;28;20039;-86
2023/07/26 06:50:14;;;;;;;3.50;1.00;;;;;;;15.22;87.00;100407.91;4943468;28;20049;-87
2023/07/26 06:52:41;;;;;;;2.00;1.42;;;;;;;15.21;86.27;100397.41;4947584;28;20042;-84
2023/07/26 06:55:08;;;;;;;3.53;1.40;;;;;;;15.22;86.74;100415.81;4953746;28;20077;-85
2023/07/26 06:57:34;;;;;;;2.63;0.90;;;;;;;15.28;85.98;100406.88;4953142;28;20066;-84
2023/07/26 07:00:01;;;;;;;2.58;1.00;;;;;;;15.44;85.65;100401.94;4945161;28;20070;-85
2023/07/26 07:02:27;;;;;;;3.67;1.83;;;;;;;15.51;84.88;100406.13;4961853;28;20057;-84
2023/07/26 07:04:54;;;;;;;1.10;1.00;;;;;;;15.53;84.88;100403.44;4957932;28;20744;-85
2023/07/26 07:07:20;;;;;;;4.00;1.23;;;;;;;15.54;84.11;100407.78;4939871;28;20039;-84
2023/07/26 07:09:47;;;;;;;1.70;1.38;;;;;;;15.42;84.67;100403.75;4939504;28;20047;-84
2023/07/26 07:12:16;;;;;;;1.50;1.33;;;;;;;15.31;84.91;100406.75;4954957;28;20057;-84
2023/07/26 07:14:43;;;;;;;0.85;0.85;;;;;;;15.46;84.42;100405.41;4937387;29;20165;-87
2023/07/26 07:17:09;;;;;;;2.72;0.82;;;;;;;15.69;83.63;100407.25;4958223;28;20047;-83
2023/07/26 07:19:36;;;;;;;1.77;0.93;;;;;;;15.85;82.63;100415.56;4938900;29;20142;-84
2023/07/26 07:22:02;;;;;;;3.72;1.45;;;;;;;15.75;83.36;100418.50;4958273;28;20053;-83
2023/07/26 07:24:29;;;;;;;1.58;0.80;;;;;;;15.53;83.24;100416.63;4941648;28;20066;-84
2023/07/26 07:26:55;;;;;;;5.28;1.17;;;;;;;15.32;83.97;100415.56;4956307;28;20065;-85
2023/07/26 07:29:22;;;;;;;3.28;1.40;;;;;;;15.16;84.28;100413.41;4935714;28;20042;-85
2023/07/26 07:31:49;;;;;;;1.23;1.15;;;;;;;15.07;84.29;100411.06;4948546;28;20054;-87
2023/07/26 07:34:15;;;;;;;3.67;1.17;;;;;;;15.04;85.37;100419.94;4960610;28;20045;-84
2023/07/26 07:36:42;;;;;;;4.00;1.00;;;;;;;15.10;84.61;100415.38;4962027;28;20054;-82
2023/07/26 07:39:09;;;;;;;1.13;1.02;;;;;;;15.25;84.62;100409.59;4963052;28;20418;-83
2023/07/26 07:41:39;;;;;;;2.53;1.05;;;;;;;15.54;82.83;100406.00;4961940;28;20038;-85
2023/07/26 07:44:06;;;;;;;1.02;1.02;;;;;;;16.37;81.17;100404.91;4943992;28;20031;-86
2023/07/26 07:46:32;;;;;;;2.45;1.10;;;;;;;17.08;78.89;100405.75;4963922;28;20046;-86
2023/07/26 07:49:01;;;;;;;2.85;1.23;;;;;;;17.79;75.16;100405.47;4938708;28;20039;-86
2023/07/26 07:51:27;;;;;;;3.50;1.00;;;;;;;18.35;72.64;100402.16;4950186;28;20046;-89
2023/07/26 07:53:54;;;;;;;3.38;1.30;;;;;;;19.04;69.53;100399.88;4954269;28;20047;-88
2023/07/26 07:56:21;;;;;;;0.80;0.80;;;;;;;19.18;66.48;100394.75;4938878;28;20047;-87
2023/07/26 07:58:48;;;;;;;1.17;0.80;;;;;;;19.34;65.00;100401.94;4954484;28;20110;-83
2023/07/26 08:01:14;;;;;;;1.33;0.88;;;;;;;18.93;66.88;100407.47;4962236;28;20031;-84
2023/07/26 08:03:41;;;;;;;0.50;0.50;;;;;;;19.15;67.87;100413.47;4963700;28;20068;-84
2023/07/26 08:06:09;;;;;;;1.60;0.60;;;;;;;19.16;67.07;100412.56;4958002;28;20126;-85
2023/07/26 08:08:35;;;;;;;2.05;0.60;;;;;;;18.69;67.58;100405.03;4958588;28;20054;-85
2023/07/26 08:11:06;;;;;;;1.20;0.60;;;;;;;18.16;69.98;100407.41;4957844;28;20043;-83
2023/07/26 08:13:34;;;;;;;1.48;0.55;;;;;;;18.82;69.41;100405.31;4955458;29;20049;-83
2023/07/26 08:16:01;;;;;;;1.30;0.40;;;;;;;19.97;64.60;100406.75;4954885;28;20046;-83
2023/07/26 08:18:27;;;;;;;3.20;1.08;;;;;;;20.87;60.39;100394.00;4954993;28;20070;-84
2023/07/26 08:20:54;;;;;;;3.85;0.73;;;;;;;21.48;57.47;100400.25;4968726;28;20170;-84
2023/07/26 08:23:21;;;;;;;0.93;0.63;;;;;;;21.21;54.25;100385.88;4940006;28;20043;-85
2023/07/26 08:25:47;;;;;;;0.55;0.50;;;;;;;20.08;57.12;100397.38;4938866;29;20403;-84
2023/07/26 08:28:14;;;;;;;1.75;0.65;;;;;;;19.14;59.56;100403.78;4952305;28;20085;-84
2023/07/26 08:30:40;;;;;;;1.55;0.98;;;;;;;19.22;60.58;100410.53;4942815;28;20104;-83
2023/07/26 08:33:07;;;;;;;0.57;0.57;;;;;;;20.14;57.37;100413.84;4940279;28;20046;-85
2023/07/26 08:35:34;;;;;;;1.83;0.88;;;;;;;21.06;54.68;100411.56;4935866;28;20070;-84
2023/07/26 08:38:00;;;;;;;1.20;1.05;;;;;;;21.75;52.72;100404.06;4941162;28;20075;-83
2023/07/26 08:40:27;;;;;;;0.80;0.57;;;;;;;20.85;54.82;100403.00;4952323;28;20043;-82
2023/07/26 08:42:57;;;;;;;2.55;1.05;;;;;;;19.22;58.86;100407.88;4955313;28;20061;-83
2023/07/26 08:45:24;;;;;;;1.45;0.52;;;;;;;19.47;59.21;100410.16;4960505;28;21340;-83
2023/07/26 08:47:53;;;;;;;1.88;0.60;;;;;;;20.42;56.41;100407.03;4955467;28;20509;-84
2023/07/26 08:50:20;;;;;;;2.85;1.55;;;;;;;21.31;52.92;100403.91;4954881;28;20469;-84
2023/07/26 08:52:47;;;;;;;2.83;0.85;;;;;;;20.44;54.51;100410.50;4955373;28;20043;-83
2023/07/26 08:55:14;;;;;;;2.13;0.80;;;;;;;19.75;57.44;100406.97;4936541;29;20046;-84
2023/07/26 08:57:41;;;;;;;2.20;0.80;;;;;;;19.05;59.25;100414.00;4931824;28;20102;-83
2023/07/26 09:00:08;;;;;;;2.72;1.25;;;;;;;18.43;61.79;100403.59;4950839;28;20081;-83
2023/07/26 09:02:36;;;;;;;1.17;1.15;;;;;;;18.38;62.12;100406.44;4973290;28;20045;-84
2023/07/26 09:05:03;;;;;;;3.75;1.08;;;;;;;18.08;63.30;100400.72;4957613;28;20045;-84
2023/07/26 09:07:30;;;;;;;4.28;1.10;;;;;;;18.00;63.91;100406.38;4972546;28;20066;-84
2023/07/26 09:09:58;;;;;;;3.35;1.02;;;;;;;17.66;65.39;100402.50;4940611;28;20054;-84
2023/07/26 09:12:29;;;;;;;2.22;1.20;;;;;;;17.40;65.58;100396.50;4942046;28;20069;-84
2023/07/26 09:15:04;;;;;;;1.75;1.02;;;;;;;17.10;66.37;100403.91;4925069;28;20101;-83
2023/07/26 09:17:43;;;;;;;1.80;1.15;;;;;;;17.33;67.28;100401.19;4968229;28;20596;-84
2023/07/26 09:20:27;;;;;;;2.05;1.02;;;;;;;19.21;58.82;100395.53;4954339;28;20094;-83
2023/07/26 09:23:05;;;;;;;1.52;1.23;;;;;;;20.87;53.82;100388.69;4936606;28;20046;-84
2023/07/26 09:25:37;;;;;;;0.85;0.80;;;;;;;21.96;50.00;100380.59;4944622;29;20035;-83
2023/07/26 09:28:05;;;;;;;1.20;0.73;;;;;;;21.13;52.49;100395.16;4949014;28;20046;-84
2023/07/26 09:30:36;;;;;;;1.15;0.88;;;;;;;19.87;53.97;100388.69;4944252;28;20114;-83
2023/07/26 09:33:04;;;;;;;3.95;0.70;;;;;;;18.95;56.46;100389.69;4950424;28;20047;-83
2023/07/26 09:35:48;;;;;;;2.55;0.93;;;;;;;20.44;51.91;100383.91;4953844;28;20478;-85
2023/07/26 09:38:15;;;;;;;;;;;;;;;21.89;47.77;100382.78;4954303;28;20031;-83
2023/07/26 09:40:42;;;;;;;0.68;0.60;;;;;;;22.18;46.78;100373.94;4939306;28;19918;-84
2023/07/26 09:43:09;;;;;;;0.75;0.57;;;;;;;21.68;47.63;100373.41;4948877;28;20039;-85
2023/07/26 09:45:36;;;;;;;1.60;0.70;;;;;;;21.06;49.58;100377.81;4940838;28;20679;-84
2023/07/26 09:48:14;;;;;;;0.98;0.70;;;;;;;22.26;48.92;100368.97;4943013;28;20038;-84
2023/07/26 09:50:45;;;;;;;4.53;0.93;;;;;;;24.19;42.78;100372.31;4954583;28;20526;-84
2023/07/26 09:53:13;;;;;;;2.95;1.17;;;;;;;24.01;43.06;100373.59;4959956;28;20144;-84
2023/07/26 09:55:41;;;;;;;2.78;0.60;;;;;;;22.33;44.25;100372.13;4959425;28;20038;-85
2023/07/26 09:58:09;;;;;;;3.10;0.90;;;;;;;21.72;45.08;100385.59;4972616;28;20042;-84
2023/07/26 10:00:37;;;;;;;1.63;0.80;;;;;;;21.81;44.99;100372.56;4955743;28;20486;-83
2023/07/26 10:03:07;;;;;;;0.88;0.60;;;;;;;21.00;47.86;100372.84;4971705;28;20861;-83
2023/07/26 10:05:47;;;;;;;0.73;0.70;;;;;;;20.37;49.62;100379.00;4934629;28;20070;-84
2023/07/26 10:08:14;;;;;;;0.73;0.73;;;;;;;19.60;52.32;100381.22;4950486;28;20686;-84
2023/07/26 10:10:47;;;;;;;1.63;1.25;;;;;;;19.52;53.09;100378.94;4952757;28;20133;-85
2023/07/26 10:13:15;;;;;;;0.85;0.85;;;;;;;20.53;50.76;100365.72;4953165;28;20042;-86
2023/07/26 10:15:46;;;;;;;1.90;1.33;;;;;;;22.24;44.93;100360.22;4959314;28;20070;-84
2023/07/26 10:18:16;;;;;;;3.33;0.90;;;;;;;23.44;41.33;100355.16;4973910;28;20036;-84
2023/07/26 10:20:43;;;;;;;1.42;0.52;;;;;;;24.67;38.74;100358.22;4955139;28;20071;-83
2023/07/26 10:23:13;;;;;;;1.15;0.70;;;;;;;25.54;37.22;100355.34;4970235;28;20046;-85
2023/07/26 10:25:41;;;;;;;2.30;0.90;;;;;;;25.80;36.63;100346.25;4958442;28;20105;-83
2023/07/26 10:28:09;;;;;;;0.65;0.65;;;;;;;24.77;38.57;100350.38;4968084;28;20067;-84
2023/07/26 10:30:38;;;;;;;2.13;1.45;;;;;;;23.09;42.04;100352.16;4955830;28;20117;-83
2023/07/26 10:33:13;;;;;;;6.43;1.20;;;;;;;21.53;46.05;100365.34;4963051;28;20445;-82
2023/07/26 10:35:42;;;;;;;0.80;0.63;;;;;;;20.53;48.52;100363.91;4947869;28;20043;-83
2023/07/26 10:38:09;;;;;;;1.05;0.95;;;;;;;19.74;50.91;100365.41;4954978;28;20125;-83
2023/07/26 10:40:38;;;;;;;0.82;0.63;;;;;;;19.40;52.26;100368.94;4962245;28;20109;-84
2023/07/26 10:43:31;;;;;;;2.78;0.80;;;;;;;19.18;51.66;100372.66;4971935;28;20113;-84
2023/07/26 10:46:08;;;;;;;3.55;0.90;;;;;;;18.87;52.26;100367.97;4968899;28;20702;-82
2023/07/26 10:48:40;;;;;;;1.65;0.63;;;;;;;18.47;54.23;100370.69;4956217;28;20073;-85
2023/07/26 10:51:32;;;;;;;1.60;0.60;;;;;;;18.24;57.53;100377.06;4953724;28;20039;-85
2023/07/26 10:54:01;;;;;;;2.45;0.80;;;;;;;18.14;59.92;100387.22;4939314;28;20058;-84
2023/07/26 10:56:33;;;;;;;0.77;0.70;;;;;;;18.11;63.69;100382.91;4941523;28;20077;-86
2023/07/26 10:59:08;;;;;;;0.70;0.70;;;;;;;18.33;65.08;100374.84;4960673;28;20050;-83
2023/07/26 11:01:44;;;;;;;2.05;1.02;;;;;;;18.41;66.33;100385.09;4967792;28;20078;-83
2023/07/26 11:04:20;;;;;;;0.80;0.80;;;;;;;18.33;68.24;100381.97;4945550;28;20062;-86
2023/07/26 11:06:56;;;;;;;0.95;0.82;;;;;;;17.92;70.97;100384.63;4946816;28;20058;-84
2023/07/26 11:09:30;;;;;;;2.20;1.00;;;;;;;17.68;73.03;100384.78;4965370;28;20478;-84
2023/07/26 11:12:12;;;;;;;2.88;0.95;;;;;;;17.85;71.39;100392.00;4965283;28;20068;-82
2023/07/26 11:14:39;;;;;;;1.02;0.88;;;;;;;18.09;69.63;100387.41;4954898;28;20031;-83
2023/07/26 11:17:15;;;;;;;2.08;0.90;;;;;;;18.59;69.93;100386.06;4955633;28;20796;-85
2023/07/26 11:19:51;;;;;;;1.27;0.90;;;;;;;19.27;68.16;100390.78;4947824;28;20441;-84
2023/07/26 11:22:20;;;;;;;0.85;0.82;;;;;;;20.21;63.64;100398.44;4952076;28;20035;-83
2023/07/26 11:24:47;;;;;;;0.80;0.65;;;;;;;21.07;60.49;100392.00;4954777;28;20066;-83